Home PIREPS Pireps

Flight BEL231A

  • Submitted By: AndrĂ© Vincent
  • Departure Airport: Bruxelles National (EBBR)
  • Arrival Airport: Cadjehoun Airport (DBBB)
  • Aircraft: A330-322 (OO-SFV)
  • Flight Time: 06.00
  • Date Submitted: 29/01/2015
  • Status: Accepted
Flight Details
Gross Revenue:
(222 load / € 0.00 per unit
€ 0.00
Fuel Cost:
(58376 fuel used @ 5.1 / unit)
€ 297,717.60

Additional Log Information:

View Log

Aircraft Used in flight is Boeing 747-400
07:18 Brakes are On
07:21 Brakes are Released
07:25 Landing Gear Up @ 224 Knots and 210 Feet
07:25 You Took off @ 226 Knots and Flaps at Position 2
Departure Weather
EBBR 290550Z 23018KT 9999 SCT012 BKN018 02/M00 Q0993 TEMPO BKN010rn
11:41 You are Airborne and your Navigation Lights are off
13:06 Above FL100 you need to switch of the landing lights
13:06 Above FL100 you need to switch of the landing lights
13:13 Landing Gear Down @ 176 Knots and 1470 Feet
13:16 You Landed @ 184 Knots and with -400 Vertical Speed
Arrival Weather
DBBB 291200Z 21012KT 8000 SCT015 31/26 Q1010 NOSIGrn
13:18 Brakes are On
13:19 Brussels Bel-Track1.0.0.7

Comments

Commenter Comment
André Vincent

Route Map

Corporate About Us Our Team Vacancies Information Fleet Route Network Rules and Regulations Operations Flight Schedules Event Center Tours Partners IVAO Vatsim Acars dev FSCB

fb Users Online Belgium Martin Witters, Belgium Bennie Peeters, Belgium Jos Viville,
3 Pilot(s) and 149 Guest(s) Online
CMS by phpVMS - Design by Crazycreatives.com - Copyright © 2018 - Brussels Airlines Virtual